^^
Saratoga-Weather Station Historical Data
Daily Summary for February 10, 2020 Units:  English    Metric   Both
Daily Weekly Monthly Yearly Custom
  High: Low: Average:
Temperature: 55.2 °F 43 °F 47.8 °F
Dew Point: 51.6 °F 38.3 °F 42.4 °F
Humidity: 93% 66% 82%
Wind Speed: 25.9mph 0mph 8.3mph
Wind Gust: 34mph - -
Wind- - West
Pressure: 29.8 in 29.4 in -
Precipitation: 1.25 in    
Historical Graphs
 
 
Tabular Data for February 10, 2020
Time Temperature Dew Point Pressure Wind Wind Speed Wind Gust Humidity Rainfall Rate (Hourly) solar
00:02 51.8 °F 49.8 °F 29.5 in WNW 2.9 mph 11 mph 93% 0.06 in 0 W/m2
00:07 51.8 °F 49.8 °F 29.5 in South 2 mph 21 mph 93% 0.05 in 0 W/m2
00:12 52 °F 50 °F 29.5 in ESE 6 mph 17 mph 93% 0.06 in 0 W/m2
00:17 52 °F 50 °F 29.5 in WSW 4 mph 9 mph 93% 0.06 in 0 W/m2
00:22 52 °F 50 °F 29.5 in NNW 6 mph 13 mph 93% 0.06 in 0 W/m2
00:27 52.2 °F 50.2 °F 29.5 in NW 17 mph 17 mph 93% 0.06 in 0 W/m2
00:32 52.2 °F 50.2 °F 29.5 in NW 8.9 mph 11 mph 93% 0.06 in 0 W/m2
00:37 52.2 °F 50.2 °F 29.5 in WNW 6.9 mph 8 mph 93% 0.06 in 0 W/m2
00:42 52.2 °F 50.2 °F 29.5 in NW 4.9 mph 19 mph 93% 0.05 in 0 W/m2
00:47 52.3 °F 50.4 °F 29.5 in West 6 mph 14 mph 93% 0.06 in 0 W/m2
00:52 52.3 °F 50.4 °F 29.5 in North 10.1 mph 11 mph 93% 0.05 in 0 W/m2
00:58 52.5 °F 50.5 °F 29.5 in WNW 4.9 mph 16 mph 93% 0.05 in 0 W/m2
01:03 52.7 °F 50.7 °F 29.5 in ESE 14.1 mph 15 mph 93% 0.04 in 0 W/m2
01:08 52.9 °F 50.9 °F 29.5 in SSW 2.9 mph 11 mph 93% 0.04 in 0 W/m2
01:13 53.1 °F 51.1 °F 29.5 in East 2.9 mph 6 mph 93% 0.05 in 0 W/m2
01:18 53.1 °F 51.1 °F 29.5 in NW 8.1 mph 13 mph 93% 0.06 in 0 W/m2
01:23 53.1 °F 51.1 °F 29.5 in ESE 4 mph 17 mph 93% 0.07 in 0 W/m2
01:28 53.2 °F 50.9 °F 29.5 in WNW 17 mph 20 mph 92% 0.07 in 0 W/m2
01:33 53.6 °F 51.3 °F 29.5 in ESE 8.1 mph 28 mph 92% 0.08 in 0 W/m2
01:38 53.8 °F 51.4 °F 29.5 in WSW 8.9 mph 13 mph 92% 0.08 in 0 W/m2
01:43 54 °F 51.4 °F 29.4 in WNW 6.9 mph 28 mph 91% 0.08 in 0 W/m2
01:48 54.1 °F 51.6 °F 29.5 in West 8.1 mph 23 mph 91% 0.08 in 0 W/m2
01:53 54.1 °F 51.6 °F 29.4 in West 4 mph 25 mph 91% 0.09 in 0 W/m2
01:58 54.1 °F 51.6 °F 29.5 in WNW 8.9 mph 12 mph 91% 0.09 in 0 W/m2
02:03 54.1 °F 51.6 °F 29.4 in WSW 8.1 mph 11 mph 91% 0.09 in 0 W/m2
02:08 54.1 °F 51.3 °F 29.4 in West 15 mph 15 mph 90% 0.09 in 0 W/m2
02:13 54.3 °F 51.4 °F 29.4 in West 6 mph 34 mph 90% 0.07 in 0 W/m2
02:18 54.5 °F 51.3 °F 29.4 in NW 4 mph 15 mph 89% 0.05 in 0 W/m2
02:23 54.7 °F 51.4 °F 29.4 in WSW 2 mph 22 mph 89% 0.04 in 0 W/m2
02:28 54.9 °F 51.1 °F 29.4 in West 8.9 mph 19 mph 87% 0.04 in 0 W/m2
02:33 55 °F 50.9 °F 29.4 in NW 10.1 mph 15 mph 86% 0.02 in 0 W/m2
02:38 55 °F 50.9 °F 29.4 in NNW 4.9 mph 11 mph 86% 0.02 in 0 W/m2
02:43 55.2 °F 51.1 °F 29.4 in West 10.1 mph 30 mph 86% 0.02 in 0 W/m2
02:48 55.2 °F 51.1 °F 29.5 in WSW 8.9 mph 21 mph 86% 0.01 in 0 W/m2
02:53 54.3 °F 49.6 °F 29.5 in NNW 12.1 mph 28 mph 84% 0.01 in 0 W/m2
02:58 52.5 °F 48.4 °F 29.5 in WNW 11 mph 23 mph 86% 0.06 in 0 W/m2
03:03 51.4 °F 48.4 °F 29.5 in West 14.1 mph 15 mph 89% 0.09 in 0 W/m2
03:08 51.1 °F 48.2 °F 29.5 in WSW 19 mph 31 mph 90% 0.11 in 0 W/m2
03:13 50.5 °F 48 °F 29.5 in WNW 8.1 mph 17 mph 91% 0.13 in 0 W/m2
03:18 50.5 °F 48 °F 29.5 in West 14.1 mph 23 mph 91% 0.14 in 0 W/m2
03:23 50.4 °F 47.8 °F 29.5 in SW 8.1 mph 30 mph 91% 0.15 in 0 W/m2
03:28 50.5 °F 48 °F 29.5 in NW 11 mph 13 mph 91% 0.16 in 0 W/m2
03:33 50.5 °F 48 °F 29.5 in West 10.1 mph 30 mph 91% 0.16 in 0 W/m2
03:38 50.5 °F 47.7 °F 29.5 in WNW 2.9 mph 19 mph 90% 0.16 in 0 W/m2
03:43 50.4 °F 47.3 °F 29.5 in WSW 6.9 mph 15 mph 89% 0.16 in 0 W/m2
03:49 50.2 °F 47.1 °F 29.5 in West 8.1 mph 21 mph 89% 0.16 in 0 W/m2
03:54 49.8 °F 46.9 °F 29.5 in WSW 17 mph 20 mph 90% 0.15 in 0 W/m2
03:59 49.6 °F 47.1 °F 29.5 in WSW 8.9 mph 25 mph 91% 0.13 in 0 W/m2
04:04 49.5 °F 46.9 °F 29.5 in WNW 13 mph 29 mph 91% 0.14 in 0 W/m2
04:09 49.1 °F 46.6 °F 29.5 in West 10.1 mph 15 mph 91% 0.14 in 0 W/m2
04:14 48.9 °F 46.8 °F 29.5 in NW 17 mph 29 mph 92% 0.17 in 0 W/m2
04:19 48.9 °F 46.8 °F 29.5 in West 13 mph 17 mph 92% 0.2 in 0 W/m2
04:24 48.6 °F 46.4 °F 29.5 in WSW 8.1 mph 22 mph 92% 0.24 in 0 W/m2
04:29 48.4 °F 46.2 °F 29.5 in West 12.1 mph 15 mph 92% 0.26 in 0 W/m2
04:34 48.4 °F 46.4 °F 29.5 in WNW 10.1 mph 17 mph 93% 0.29 in 0 W/m2
04:39 48.4 °F 46.4 °F 29.5 in NW 19 mph 19 mph 93% 0.32 in 0 W/m2
04:44 48.4 °F 46.4 °F 29.5 in WSW 8.9 mph 10 mph 93% 0.35 in 0 W/m2
04:49 48.4 °F 46.4 °F 29.5 in West 8.9 mph 17 mph 93% 0.37 in 0 W/m2
04:54 48.4 °F 46.4 °F 29.5 in NNW 8.9 mph 18 mph 93% 0.37 in 0 W/m2
04:59 48.6 °F 46.6 °F 29.5 in WNW 17 mph 28 mph 93% 0.36 in 0 W/m2
05:04 48.6 °F 46 °F 29.5 in West 8.9 mph 20 mph 91% 0.35 in 0 W/m2
05:09 48.6 °F 45.5 °F 29.5 in West 10.1 mph 26 mph 89% 0.33 in 0 W/m2
05:14 48.4 °F 44.8 °F 29.5 in WNW 8.9 mph 23 mph 87% 0.3 in 0 W/m2
05:19 48 °F 43.7 °F 29.5 in WSW 21 mph 27 mph 85% 0.24 in 0 W/m2
05:25 48.4 °F 44.1 °F 29.5 in WNW 21.9 mph 22 mph 85% 0.2 in 0 W/m2
05:30 48.6 °F 43.7 °F 29.5 in WNW 4 mph 18 mph 83% 0.17 in 0 W/m2
05:35 48.7 °F 43.9 °F 29.5 in West 8.9 mph 27 mph 83% 0.15 in 0 W/m2
05:40 48.7 °F 43.5 °F 29.5 in WNW 11 mph 17 mph 82% 0.11 in 0 W/m2
05:45 48.9 °F 43.7 °F 29.5 in SW 4 mph 26 mph 82% 0.08 in 0 W/m2
05:50 48.9 °F 43.7 °F 29.5 in WNW 14.1 mph 17 mph 82% 0.06 in 0 W/m2
05:55 49.3 °F 43.7 °F 29.5 in WNW 11 mph 20 mph 81% 0.06 in 0 W/m2
06:00 49.3 °F 44.1 °F 29.5 in West 16.1 mph 16 mph 82% 0.04 in 0 W/m2
06:05 49.5 °F 44.2 °F 29.5 in West 10.1 mph 14 mph 82% 0.02 in 0 W/m2
06:10 49.5 °F 43.9 °F 29.5 in West 6 mph 12 mph 81% 0.01 in 0 W/m2
06:15 49.6 °F 43.7 °F 29.5 in SSW 11 mph 16 mph 80% 0 in 0 W/m2
06:20 49.5 °F 43.9 °F 29.5 in WNW 10.1 mph 21 mph 81% 0 in 0 W/m2
06:25 48.9 °F 44.1 °F 29.5 in WNW 4.9 mph 12 mph 83% 0.01 in 0 W/m2
06:30 48.7 °F 44.1 °F 29.5 in NW 11 mph 18 mph 84% 0.01 in 0 W/m2
06:35 48.4 °F 43.7 °F 29.5 in WNW 8.9 mph 18 mph 84% 0.01 in 0 W/m2
06:40 48 °F 43.7 °F 29.5 in WNW 4 mph 18 mph 85% 0.02 in 0 W/m2
06:45 48 °F 43.3 °F 29.5 in WSW 2.9 mph 19 mph 84% 0.02 in 0 W/m2
06:50 48.2 °F 43.5 °F 29.6 in West 8.9 mph 18 mph 84% 0.02 in 0 W/m2
06:55 48.4 °F 43.2 °F 29.6 in WSW 13 mph 31 mph 82% 0.02 in 0 W/m2
07:00 48.6 °F 43 °F 29.6 in West 14.1 mph 19 mph 81% 0.02 in 0 W/m2
07:05 48.6 °F 42.6 °F 29.6 in West 15 mph 23 mph 80% 0.02 in 0 W/m2
07:10 48.6 °F 42.6 °F 29.6 in West 12.1 mph 14 mph 80% 0.02 in 0 W/m2
07:15 48.6 °F 42.6 °F 29.6 in West 6 mph 15 mph 80% 0.02 in 0 W/m2
07:20 48.6 °F 42.3 °F 29.6 in WSW 13 mph 21 mph 79% 0.02 in 0 W/m2
07:25 48.4 °F 42.3 °F 29.6 in West 11 mph 13 mph 79% 0.01 in 0 W/m2
07:30 48.4 °F 41.9 °F 29.6 in West 4 mph 12 mph 78% 0.01 in 0 W/m2
07:35 48.4 °F 41.9 °F 29.6 in West 8.9 mph 15 mph 78% 0.01 in 0 W/m2
07:40 48.4 °F 41.5 °F 29.6 in West 10.1 mph 10 mph 77% 0 in 0 W/m2
07:45 48.4 °F 41.5 °F 29.6 in NW 12.1 mph 21 mph 77% 0 in 0 W/m2
07:50 48.4 °F 41.2 °F 29.6 in WNW 6.9 mph 27 mph 76% 0 in 0 W/m2
07:55 48 °F 41.2 °F 29.6 in WSW 8.9 mph 16 mph 77% 0 in 0 W/m2
08:01 47.5 °F 41.4 °F 29.6 in West 13 mph 30 mph 79% 0 in 0 W/m2
08:06 46.6 °F 41.4 °F 29.6 in WNW 6 mph 16 mph 82% 0 in 5 W/m2
08:11 46.4 °F 41.5 °F 29.6 in West 10.1 mph 18 mph 83% 0 in 11 W/m2
08:16 46.8 °F 40.6 °F 29.6 in West 17 mph 26 mph 79% 0 in 21 W/m2
08:21 47.1 °F 39.9 °F 29.6 in West 21.9 mph 22 mph 76% 0.01 in 26 W/m2
08:26 47.1 °F 39.6 °F 29.6 in West 11 mph 20 mph 75% 0.01 in 28 W/m2
08:31 47.1 °F 39.6 °F 29.6 in WNW 4.9 mph 12 mph 75% 0.01 in 30 W/m2
08:36 46.9 °F 39.4 °F 29.7 in WNW 2.9 mph 11 mph 75% 0.01 in 25 W/m2
08:41 46.9 °F 39.4 °F 29.7 in SW 19.9 mph 26 mph 75% 0.01 in 51 W/m2
08:46 47.1 °F 39.2 °F 29.7 in West 8.9 mph 17 mph 74% 0.01 in 70 W/m2
08:51 47.1 °F 39.6 °F 29.7 in SW 14.1 mph 16 mph 75% 0.01 in 77 W/m2
08:56 47.3 °F 39.7 °F 29.7 in WSW 8.1 mph 25 mph 75% 0.01 in 67 W/m2
09:01 47.3 °F 39.7 °F 29.7 in West 13 mph 14 mph 75% 0.01 in 35 W/m2
09:06 47.3 °F 39.4 °F 29.7 in WNW 6 mph 16 mph 74% 0.01 in 18 W/m2
09:11 47.1 °F 38.8 °F 29.7 in WSW 8.9 mph 15 mph 73% 0.01 in 25 W/m2
09:16 47.1 °F 38.8 °F 29.7 in NNW 8.9 mph 13 mph 73% 0.01 in 35 W/m2
09:21 46.8 °F 38.5 °F 29.7 in West 8.9 mph 18 mph 73% 0 in 76 W/m2
09:26 46.6 °F 38.5 °F 29.7 in West 10.1 mph 19 mph 73% 0 in 58 W/m2
09:31 46.2 °F 38.5 °F 29.7 in SW 8.9 mph 17 mph 74% 0 in 58 W/m2
09:36 46.2 °F 38.5 °F 29.7 in West 8.1 mph 15 mph 74% 0 in 163 W/m2
09:41 46.4 °F 38.8 °F 29.7 in WSW 4.9 mph 14 mph 75% 0 in 236 W/m2
09:46 46.8 °F 38.8 °F 29.7 in NNW 8.1 mph 14 mph 74% 0 in 188 W/m2
09:51 46.9 °F 39.4 °F 29.7 in West 2.9 mph 19 mph 75% 0 in 28 W/m2
09:56 46.8 °F 39.6 °F 29.7 in WNW 8.9 mph 16 mph 76% 0 in 12 W/m2
10:01 45.9 °F 39.7 °F 29.7 in WNW 4 mph 22 mph 79% 0.01 in 11 W/m2
10:07 45 °F 39.7 °F 29.7 in West 13 mph 24 mph 82% 0.02 in 67 W/m2
10:12 44.1 °F 39.6 °F 29.7 in NW 12.1 mph 18 mph 84% 0.02 in 14 W/m2
10:17 43.5 °F 38.7 °F 29.7 in WSW 19 mph 23 mph 83% 0.02 in 14 W/m2
10:22 43.5 °F 38.7 °F 29.7 in West 13 mph 22 mph 83% 0.02 in 44 W/m2
10:27 43.5 °F 38.7 °F 29.7 in WSW 10.1 mph 10 mph 83% 0.02 in 40 W/m2
10:32 43.3 °F 38.8 °F 29.7 in WSW 8.9 mph 22 mph 84% 0.02 in 33 W/m2
10:37 43.2 °F 39 °F 29.7 in WNW 8.1 mph 16 mph 85% 0.02 in 95 W/m2
10:42 43.3 °F 39.2 °F 29.7 in SW 8.9 mph 16 mph 85% 0.02 in 156 W/m2
10:47 43.7 °F 39.6 °F 29.8 in West 4 mph 12 mph 85% 0.02 in 181 W/m2
10:52 44.2 °F 40.1 °F 29.8 in West 8.9 mph 10 mph 85% 0.02 in 211 W/m2
10:57 44.6 °F 40.5 °F 29.8 in WSW 4.9 mph 12 mph 85% 0.02 in 216 W/m2
11:02 44.8 °F 40.3 °F 29.8 in NW 4.9 mph 14 mph 84% 0.02 in 192 W/m2
11:07 45 °F 40.5 °F 29.8 in WSW 10.1 mph 16 mph 84% 0.01 in 172 W/m2
11:12 45.1 °F 40.3 °F 29.8 in NNW 23 mph 23 mph 83% 0.01 in 155 W/m2
11:17 45.5 °F 40.3 °F 29.8 in WNW 4.9 mph 13 mph 82% 0 in 149 W/m2
11:23 45.9 °F 40.1 °F 29.8 in West 15 mph 18 mph 80% 0 in 127 W/m2
11:28 46 °F 39.6 °F 29.8 in West 17 mph 29 mph 78% 0 in 109 W/m2
11:33 46.4 °F 39.6 °F 29.8 in NW 10.1 mph 15 mph 77% 0 in 123 W/m2
11:38 46.6 °F 39.7 °F 29.8 in NW 11 mph 18 mph 77% 0 in 179 W/m2
11:43 46.8 °F 39.6 °F 29.8 in NW 12.1 mph 12 mph 76% 0 in 146 W/m2
11:48 46.9 °F 39.7 °F 29.8 in West 6.9 mph 7 mph 76% 0 in 155 W/m2
11:53 47.1 °F 39.2 °F 29.8 in WNW 12.1 mph 18 mph 74% 0 in 190 W/m2
11:58 47.3 °F 38.7 °F 29.8 in WSW 14.1 mph 27 mph 72% 0 in 151 W/m2
12:03 47.7 °F 38.3 °F 29.8 in SW 4.9 mph 18 mph 70% 0 in 181 W/m2
12:08 47.7 °F 38.3 °F 29.8 in NW 16.1 mph 17 mph 70% 0 in 183 W/m2
12:13 47.8 °F 38.5 °F 29.8 in NNW 8.9 mph 13 mph 70% 0 in 202 W/m2
12:18 48.2 °F 38.5 °F 29.8 in WNW 8.9 mph 15 mph 69% 0 in 346 W/m2
12:23 48.4 °F 38.3 °F 29.8 in WNW 10.1 mph 23 mph 68% 0 in 178 W/m2
12:28 48.6 °F 38.5 °F 29.8 in NW 17 mph 17 mph 68% 0 in 253 W/m2
12:33 48.7 °F 38.7 °F 29.8 in NNW 14.1 mph 14 mph 68% 0 in 123 W/m2
12:38 48.9 °F 38.8 °F 29.8 in NW 13 mph 15 mph 68% 0 in 134 W/m2
12:43 48.9 °F 38.8 °F 29.8 in WSW 6.9 mph 10 mph 68% 0 in 243 W/m2
12:48 48.9 °F 38.8 °F 29.8 in West 10.1 mph 15 mph 68% 0 in 211 W/m2
12:53 49.3 °F 39.6 °F 29.8 in WSW 21 mph 21 mph 69% 0 in 214 W/m2
12:58 49.1 °F 39 °F 29.8 in South 6.9 mph 13 mph 68% 0 in 176 W/m2
13:03 49.1 °F 38.7 °F 29.8 in WNW 8.9 mph 25 mph 67% 0 in 181 W/m2
13:08 49.1 °F 39.4 °F 29.8 in NW 8.9 mph 19 mph 69% 0 in 204 W/m2
13:13 49.3 °F 39.2 °F 29.8 in WSW 2.9 mph 22 mph 68% 0 in 207 W/m2
13:18 49.3 °F 39.6 °F 29.8 in WSW 4.9 mph 10 mph 69% 0 in 200 W/m2
13:23 49.3 °F 39.6 °F 29.8 in NNW 12.1 mph 21 mph 69% 0 in 223 W/m2
13:28 49.3 °F 39.2 °F 29.8 in WNW 10.1 mph 14 mph 68% 0 in 111 W/m2
13:33 49.1 °F 39.4 °F 29.8 in SSW 6.9 mph 19 mph 69% 0 in 123 W/m2
13:38 48.9 °F 39.2 °F 29.8 in West 13 mph 19 mph 69% 0 in 113 W/m2
13:43 48.9 °F 38.8 °F 29.8 in WSW 10.1 mph 12 mph 68% 0 in 151 W/m2
13:48 49.1 °F 39 °F 29.8 in West 6 mph 11 mph 68% 0 in 125 W/m2
13:53 48.9 °F 39.2 °F 29.8 in NW 8.9 mph 14 mph 69% 0 in 149 W/m2
13:58 49.1 °F 39.4 °F 29.8 in WSW 8.1 mph 10 mph 69% 0 in 244 W/m2
14:03 49.3 °F 39.6 °F 29.8 in North 4 mph 9 mph 69% 0 in 174 W/m2
14:09 49.3 °F 39.2 °F 29.8 in NW 4.9 mph 10 mph 68% 0 in 156 W/m2
14:14 49.3 °F 39.6 °F 29.8 in WNW 11 mph 12 mph 69% 0 in 163 W/m2
14:19 49.3 °F 39.6 °F 29.8 in SE 4.9 mph 7 mph 69% 0 in 116 W/m2
14:24 49.3 °F 39.6 °F 29.8 in West 2 mph 9 mph 69% 0 in 151 W/m2
14:29 49.3 °F 39.2 °F 29.8 in West 6.9 mph 13 mph 68% 0 in 146 W/m2
14:34 49.3 °F 39.2 °F 29.8 in West 8.1 mph 11 mph 68% 0 in 149 W/m2
14:39 49.1 °F 38.7 °F 29.8 in SSE 6 mph 13 mph 67% 0 in 120 W/m2
14:44 49.1 °F 38.3 °F 29.8 in WSW 11 mph 16 mph 66% 0 in 142 W/m2
14:49 48.9 °F 38.5 °F 29.8 in WSW 6.9 mph 7 mph 67% 0 in 165 W/m2
14:54 49.1 °F 38.7 °F 29.8 in West 12.1 mph 12 mph 67% 0 in 183 W/m2
14:59 49.3 °F 38.8 °F 29.8 in NNW 4 mph 12 mph 67% 0 in 174 W/m2
15:04 49.3 °F 38.8 °F 29.8 in WNW 2 mph 14 mph 67% 0 in 107 W/m2
15:09 49.3 °F 39.2 °F 29.8 in NW 10.1 mph 10 mph 68% 0 in 74 W/m2
15:14 49.1 °F 39 °F 29.8 in WNW 4 mph 6 mph 68% 0 in 40 W/m2
15:19 48.9 °F 38.8 °F 29.8 in WNW 2.9 mph 17 mph 68% 0 in 30 W/m2
15:24 48.6 °F 39.2 °F 29.8 in West 4 mph 6 mph 70% 0 in 33 W/m2
15:29 48.4 °F 39.4 °F 29.8 in WNW 2 mph 16 mph 71% 0 in 25 W/m2
15:34 48.4 °F 39.4 °F 29.7 in NE 4 mph 5 mph 71% 0 in 21 W/m2
15:39 48.4 °F 39.4 °F 29.7 in WSW 2 mph 13 mph 71% 0 in 33 W/m2
15:44 48.4 °F 39.4 °F 29.7 in NNW 6 mph 10 mph 71% 0 in 26 W/m2
15:49 48.6 °F 39.2 °F 29.7 in SSE 8.9 mph 12 mph 70% 0 in 33 W/m2
15:54 48.7 °F 38.7 °F 29.7 in NW 2 mph 13 mph 68% 0 in 42 W/m2
15:59 48.7 °F 38.7 °F 29.7 in NW 8.9 mph 13 mph 68% 0 in 44 W/m2
16:04 48.9 °F 38.8 °F 29.7 in NNW 4.9 mph 16 mph 68% 0 in 39 W/m2
16:09 48.7 °F 38.7 °F 29.7 in West 8.1 mph 10 mph 68% 0 in 21 W/m2
16:14 48.7 °F 38.7 °F 29.7 in WNW 6.9 mph 14 mph 68% 0 in 28 W/m2
16:19 48.6 °F 38.8 °F 29.7 in SE 4 mph 11 mph 69% 0 in 23 W/m2
16:24 48.6 °F 38.8 °F 29.7 in NE 4 mph 9 mph 69% 0 in 39 W/m2
16:29 48.6 °F 39.2 °F 29.7 in NW 0.9 mph 7 mph 70% 0 in 40 W/m2
16:34 48.6 °F 38.8 °F 29.7 in SE 2.9 mph 10 mph 69% 0 in 58 W/m2
16:39 48.6 °F 38.8 °F 29.7 in NE 4 mph 7 mph 69% 0 in 42 W/m2
16:44 48.6 °F 38.8 °F 29.7 in WNW 2 mph 15 mph 69% 0 in 19 W/m2
16:49 48.7 °F 38.7 °F 29.7 in West 4 mph 10 mph 68% 0 in 9 W/m2
16:54 48.7 °F 38.7 °F 29.7 in NE 4 mph 4 mph 68% 0 in 11 W/m2
16:59 48.7 °F 38.3 °F 29.7 in NNW 4.9 mph 12 mph 67% 0 in 0 W/m2
17:04 48.2 °F 39.9 °F 29.7 in WNW 8.9 mph 23 mph 73% 0.01 in 11 W/m2
17:09 47.1 °F 39.9 °F 29.7 in NW 4.9 mph 5 mph 76% 0.01 in 11 W/m2
17:14 46.6 °F 39.7 °F 29.7 in WSW 2 mph 8 mph 77% 0.01 in 7 W/m2
17:19 46.2 °F 39.7 °F 29.7 in WSW 4.9 mph 9 mph 78% 0.01 in 5 W/m2
17:25 46.2 °F 40.5 °F 29.7 in NNW 2 mph 6 mph 80% 0.01 in 0 W/m2
17:30 46 °F 40.3 °F 29.7 in WNW 17.9 mph 18 mph 80% 0.02 in 5 W/m2
17:35 45.9 °F 40.6 °F 29.7 in West 2 mph 4 mph 82% 0.02 in 0 W/m2
17:40 45.7 °F 40.8 °F 29.7 in West 8.9 mph 18 mph 83% 0.02 in 0 W/m2
17:45 45.5 °F 41 °F 29.7 in West 6 mph 11 mph 84% 0.02 in 0 W/m2
17:50 45.3 °F 40.8 °F 29.7 in SW 6 mph 12 mph 84% 0.02 in 0 W/m2
17:55 45.3 °F 41 °F 29.7 in NE 2.9 mph 17 mph 85% 0.02 in 0 W/m2
18:00 45.3 °F 41 °F 29.7 in WNW 6.9 mph 8 mph 85% 0.02 in 0 W/m2
18:05 45.3 °F 41.4 °F 29.7 in NNW 2.9 mph 17 mph 86% 0.02 in 0 W/m2
18:10 45.3 °F 41.4 °F 29.6 in WSW 8.1 mph 15 mph 86% 0.02 in 0 W/m2
18:15 45.5 °F 41.5 °F 29.6 in NNW 0.9 mph 6 mph 86% 0.02 in 0 W/m2
18:20 45.3 °F 41.7 °F 29.6 in WNW 2 mph 15 mph 87% 0.04 in 0 W/m2
18:25 45.3 °F 41.9 °F 29.6 in WNW 2 mph 5 mph 88% 0.05 in 0 W/m2
18:30 45.1 °F 41.7 °F 29.6 in West 2 mph 10 mph 88% 0.04 in 0 W/m2
18:35 45 °F 41.9 °F 29.6 in NW 0.9 mph 3 mph 89% 0.05 in 0 W/m2
18:40 45 °F 41.9 °F 29.6 in Calm   1 mph 89% 0.06 in 0 W/m2
18:45 45 °F 42.3 °F 29.6 in NE 4 mph 4 mph 90% 0.06 in 0 W/m2
18:50 44.8 °F 42.1 °F 29.6 in NNW 0.9 mph 2 mph 90% 0.07 in 0 W/m2
18:55 44.8 °F 42.3 °F 29.6 in West 10.1 mph 10 mph 91% 0.09 in 0 W/m2
19:00 45 °F 42.4 °F 29.6 in North 8.9 mph 9 mph 91% 0.13 in 0 W/m2
19:05 44.8 °F 42.3 °F 29.6 in WSW 2 mph 6 mph 91% 0.15 in 0 W/m2
19:10 44.6 °F 42.4 °F 29.6 in WNW 25.9 mph 26 mph 92% 0.16 in 0 W/m2
19:15 45.7 °F 43.2 °F 29.6 in West 10.1 mph 17 mph 91% 0.16 in 0 W/m2
19:20 46 °F 43.3 °F 29.6 in WNW 6.9 mph 14 mph 90% 0.14 in 0 W/m2
19:25 46.2 °F 43.2 °F 29.6 in West 13 mph 15 mph 89% 0.13 in 0 W/m2
19:31 46.2 °F 43.2 °F 29.6 in WNW 4 mph 7 mph 89% 0.13 in 0 W/m2
19:36 46.2 °F 43.2 °F 29.6 in WNW 6.9 mph 10 mph 89% 0.12 in 0 W/m2
19:41 46.2 °F 43.2 °F 29.6 in NW 6 mph 11 mph 89% 0.12 in 0 W/m2
19:46 46 °F 43.3 °F 29.6 in NNW 4 mph 18 mph 90% 0.13 in 0 W/m2
19:51 45.5 °F 42.4 °F 29.6 in SW 4.9 mph 10 mph 89% 0.11 in 0 W/m2
19:56 45.1 °F 42.1 °F 29.6 in WNW 10.1 mph 23 mph 89% 0.09 in 0 W/m2
20:01 45.1 °F 41.7 °F 29.6 in WSW 4 mph 7 mph 88% 0.06 in 0 W/m2
20:06 45 °F 41.5 °F 29.6 in WNW 4.9 mph 22 mph 88% 0.04 in 0 W/m2
20:11 45 °F 41.9 °F 29.6 in WNW 8.1 mph 12 mph 89% 0.02 in 0 W/m2
20:16 45 °F 41.5 °F 29.6 in WNW 8.1 mph 13 mph 88% 0.02 in 0 W/m2
20:21 45 °F 41.5 °F 29.6 in WNW 8.1 mph 8 mph 88% 0.02 in 0 W/m2
20:26 45 °F 41.5 °F 29.6 in WNW 8.1 mph   88% 0.02 in 0 W/m2
20:31 45 °F 41.5 °F 29.6 in WNW 8.1 mph   88% 0.02 in 0 W/m2
20:36 45 °F 41.5 °F 29.6 in Calm     88% 0.02 in 0 W/m2
20:41 45 °F 41.9 °F 29.6 in Calm     89% 0.02 in 0 W/m2
20:46 45 °F 41.9 °F 29.6 in Calm     89% 0.02 in 0 W/m2
20:51 45 °F 42.3 °F 29.6 in Calm     90% 0.02 in 0 W/m2
20:56 45 °F 42.3 °F 29.6 in Calm     90% 0.03 in 0 W/m2
21:01 44.8 °F 42.3 °F 29.6 in WSW 4 mph 10 mph 91% 0.06 in 0 W/m2
21:06 44.4 °F 41.9 °F 29.6 in NNW 8.9 mph 20 mph 91% 0.08 in 0 W/m2
21:11 44.2 °F 41.7 °F 29.6 in West 6.9 mph 9 mph 91% 0.09 in 0 W/m2
21:16 44.2 °F 42.1 °F 29.6 in West 6 mph 14 mph 92% 0.1 in 0 W/m2
21:21 44.2 °F 42.1 °F 29.6 in WNW 10.1 mph 13 mph 92% 0.11 in 0 W/m2
21:26 44.2 °F 42.1 °F 29.6 in SW 4.9 mph 21 mph 92% 0.13 in 0 W/m2
21:31 44.2 °F 42.1 °F 29.6 in West 12.1 mph 21 mph 92% 0.15 in 0 W/m2
21:36 44.1 °F 41.5 °F 29.6 in West 11 mph 18 mph 91% 0.17 in 0 W/m2
21:41 43.5 °F 41 °F 29.6 in West 8.1 mph 10 mph 91% 0.19 in 0 W/m2
21:46 43.3 °F 40.8 °F 29.6 in North 4 mph 18 mph 91% 0.19 in 0 W/m2
21:51 43.3 °F 41.2 °F 29.6 in West 4 mph 8 mph 92% 0.19 in 0 W/m2
21:56 43.2 °F 41 °F 29.6 in NNW 2.9 mph 6 mph 92% 0.18 in 0 W/m2
22:01 43.2 °F 41 °F 29.6 in WSW 10.1 mph 12 mph 92% 0.17 in 0 W/m2
22:06 43 °F 40.5 °F 29.6 in WNW 8.9 mph 12 mph 91% 0.14 in 0 W/m2
22:11 43 °F 40.5 °F 29.6 in NW 8.1 mph 12 mph 91% 0.13 in 0 W/m2
22:16 43 °F 40.5 °F 29.6 in West 6.9 mph 17 mph 91% 0.13 in 0 W/m2
22:21 43 °F 40.8 °F 29.6 in West 8.1 mph 14 mph 92% 0.13 in 0 W/m2
22:26 43.2 °F 41 °F 29.6 in West 14.1 mph 20 mph 92% 0.12 in 0 W/m2
22:31 43.5 °F 41 °F 29.6 in NW 16.1 mph 24 mph 91% 0.11 in 0 W/m2
22:36 43.9 °F 41.2 °F 29.6 in WNW 11 mph 16 mph 90% 0.09 in 0 W/m2
22:41 43.9 °F 41.2 °F 29.6 in West 8.9 mph 15 mph 90% 0.08 in 0 W/m2
22:46 44.1 °F 41.4 °F 29.6 in WNW 8.1 mph 18 mph 90% 0.07 in 0 W/m2
22:51 44.1 °F 41.4 °F 29.6 in WNW 8.1 mph 17 mph 90% 0.06 in 0 W/m2
22:56 44.1 °F 41.4 °F 29.6 in WNW 4.9 mph 10 mph 90% 0.06 in 0 W/m2
23:01 44.1 °F 41.4 °F 29.6 in West 8.1 mph 16 mph 90% 0.05 in 0 W/m2
23:06 44.1 °F 41.4 °F 29.6 in West 6 mph 12 mph 90% 0.05 in 0 W/m2
23:11 44.1 °F 41.4 °F 29.6 in West 6.9 mph 8 mph 90% 0.04 in 0 W/m2
23:16 44.1 °F 41.4 °F 29.6 in WNW 4.9 mph 17 mph 90% 0.03 in 0 W/m2
23:21 44.2 °F 41.2 °F 29.6 in WSW 16.1 mph 16 mph 89% 0.03 in 0 W/m2
23:26 44.2 °F 41 °F 29.6 in WSW 8.1 mph 23 mph 88% 0.02 in 0 W/m2
23:32 44.2 °F 41 °F 29.6 in WNW 8.1 mph 16 mph 88% 0.01 in 0 W/m2
23:37 44.2 °F 40.6 °F 29.6 in SE 2.9 mph 22 mph 87% 0.01 in 0 W/m2
23:42 44.2 °F 40.6 °F 29.6 in WNW 8.9 mph 13 mph 87% 0 in 0 W/m2
23:47 44.2 °F 40.6 °F 29.6 in WNW 10.1 mph 17 mph 87% 0 in 0 W/m2
23:52 44.2 °F 40.3 °F 29.6 in West 14.1 mph 16 mph 86% 0 in 0 W/m2
23:57 44.2 °F 40.3 °F 29.6 in WNW 10.1 mph 14 mph 86% 0 in 0 W/m2
Juneau County Weather
Compliments of Weather Underground - 4 mb